ADDS METAR Data INFO
IDs: Format: Raw Decoded Include TAF

Data at: 1743 UTC 15 Dec 2017

KTHA 151735Z AUTO 32005G11KT 10SM OVC025 00/M06 A3016 RMK A01
KTHA 151715Z AUTO 30009G14KT 10SM OVC025 M00/M06 A3015 RMK A01
KTHA 151655Z AUTO 32008KT 10SM OVC025 M00/M06 A3016 RMK A01
KTHA 151635Z AUTO 32013KT 10SM OVC024 M00/M06 A3017 RMK A01
KTHA 151615Z AUTO 32009KT 10SM OVC024 M01/M06 A3016 RMK A01
KTHA 151555Z AUTO 33010KT 10SM OVC025 M01/M05 A3016 RMK A01
KTHA 151535Z AUTO 31007KT 10SM OVC026 M01/M05 A3015 RMK A01
KTHA 151515Z AUTO 33008KT 310V010 10SM OVC026 M01/M05 A3014 RMK A01
KTHA 151455Z AUTO 31008KT 10SM OVC027 M01/M05 A3014 RMK A01
KTHA 151435Z AUTO 30007KT 10SM OVC027 M01/M05 A3013 RMK A01
KTHA 151415Z AUTO 31007KT 10SM OVC028 M02/M05 A3012 RMK A01
KTHA 151355Z AUTO 31006KT 10SM OVC028 M02/M05 A3011 RMK A01
KTHA 151335Z AUTO 29004KT 10SM OVC028 M02/M05 A3010 RMK A01
KTHA 151315Z AUTO 00000KT 9SM OVC029 M02/M05 A3009 RMK A01
KTHA 151255Z AUTO 27004KT 9SM OVC029 M03/M05 A3009 RMK A01
KTHA 151235Z AUTO 26004KT 10SM OVC029 M03/M05 A3008 RMK A01
KTHA 151215Z AUTO 28004KT 10SM OVC029 M03/M05 A3007 RMK A01
KTHA 151155Z AUTO 29004KT 10SM OVC029 M03/M05 A3006 RMK A01
KTHA 151135Z AUTO 00000KT 10SM OVC028 M03/M05 A3005 RMK A01
KTHA 151115Z AUTO 25003KT 10SM OVC029 M04/M05 A3006 RMK A01
KTHA 151055Z AUTO 00000KT 10SM OVC029 M03/M06 A3005 RMK A01
KTHA 151035Z AUTO 00000KT 10SM OVC027 M03/M06 A3005 RMK A01
KTHA 151015Z AUTO 00000KT 10SM OVC026 M04/M05 A3005 RMK A01
KTHA 150955Z AUTO 00000KT 10SM OVC026 M04/M06 A3005 RMK A01
KTHA 150935Z AUTO 00000KT 10SM OVC027 M04/M06 A3004 RMK A01
KTHA 150915Z AUTO 00000KT 10SM OVC027 M05/M06 A3005 RMK A01
KTHA 150855Z AUTO 00000KT 10SM OVC026 M05/M07 A3005 RMK A01
KTHA 150835Z AUTO 00000KT 10SM OVC026 M05/M07 A3004 RMK A01
KTHA 150815Z AUTO 00000KT 10SM OVC026 M05/M07 A3004 RMK A01
KTHA 150755Z AUTO 00000KT 10SM OVC025 M05/M06 A3005 RMK A01
KTHA 150735Z AUTO 00000KT 9SM BKN024 BKN037 M05/M07 A3005 RMK A01
KTHA 150715Z AUTO 00000KT 10SM CLR M05/M07 A3005 RMK A01
KTHA 150655Z AUTO 00000KT 10SM CLR M04/M06 A3005 RMK A01
KTHA 150635Z AUTO 00000KT 10SM CLR M04/M06 A3005 RMK A01
KTHA 150615Z AUTO 00000KT 10SM FEW037 M03/M06 A3006 RMK A01
KTHA 150555Z AUTO 29003KT 10SM CLR M03/M06 A3006 RMK A01
KTHA 150535Z AUTO 00000KT 10SM FEW037 M04/M06 A3006 RMK A01
KTHA 150515Z AUTO 00000KT 10SM SCT036 M03/M06 A3007 RMK A01
KTHA 150455Z AUTO 00000KT 10SM FEW037 M03/M05 A3007 RMK A01
KTHA 150435Z AUTO 00000KT 10SM CLR M03/M05 A3007 RMK A01
KTHA 150415Z AUTO 00000KT 10SM CLR M02/M05 A3006 RMK A01
KTHA 150355Z AUTO 32004KT 10SM CLR M03/M05 A3007 RMK A01
KTHA 150335Z AUTO 32004KT 10SM CLR M02/M05 A3006 RMK A01
KTHA 150315Z AUTO 33004KT 10SM CLR M02/M05 A3006 RMK A01
KTHA 150255Z AUTO 33003KT 10SM CLR M02/M05 A3005 RMK A01
KTHA 150235Z AUTO 00000KT 10SM CLR M02/M05 A3005 RMK A01
KTHA 150215Z AUTO 36005KT 10SM CLR M02/M05 A3004 RMK A01
KTHA 150155Z AUTO 36007KT 10SM CLR M01/M04 A3004 RMK A01
KTHA 150135Z AUTO 35006KT 10SM CLR M00/M04 A3004 RMK A01
KTHA 150115Z AUTO 35008KT 10SM CLR M00/M04 A3004 RMK A01
KTHA 150055Z AUTO 35007KT 10SM CLR 00/M04 A3003 RMK A01
KTHA 150035Z AUTO 35009G14KT 10SM CLR 01/M03 A3002 RMK A01
KTHA 150015Z AUTO 35007KT 10SM CLR 01/M03 A3001 RMK A01
KTHA 142355Z AUTO 35007KT 10SM CLR 01/M03 A3000 RMK A01
KTHA 142335Z AUTO 33006KT 10SM CLR 01/M03 A3000 RMK A01
KTHA 142315Z AUTO 35006KT 10SM CLR 02/M03 A2998 RMK A01
KTHA 142255Z AUTO 35007KT 10SM CLR 02/M03 A2997 RMK A01
KTHA 142235Z AUTO 36008KT 10SM CLR 04/M02 A2997 RMK A01
KTHA 142215Z AUTO 35010KT 10SM CLR 05/M02 A2998 RMK A01
KTHA 142155Z AUTO 34008KT 10SM CLR 05/M02 A2998 RMK A01
KTHA 142135Z AUTO 34008KT 10SM CLR 06/M02 A2997 RMK A01
KTHA 142115Z AUTO 33007KT 10SM CLR 07/M02 A2997 RMK A01
KTHA 142055Z AUTO VRB03KT 10SM CLR 07/M02 A2996 RMK A01
KTHA 142035Z AUTO 34007KT 10SM CLR 08/M02 A2996 RMK A01
KTHA 142015Z AUTO VRB06G12KT 10SM FEW038 08/M02 A2995 RMK A01
KTHA 141955Z AUTO 28007KT 10SM FEW039 08/M02 A2995 RMK A01
KTHA 141935Z AUTO 31007KT 10SM FEW036 08/M02 A2995 RMK A01
KTHA 141915Z AUTO 31007G12KT 10SM FEW036 08/M01 A2994 RMK A01
KTHA 141855Z AUTO VRB05G13KT 10SM CLR 08/M02 A2994 RMK A01
KTHA 141835Z AUTO 34006KT 10SM CLR 08/M02 A2995 RMK A01
KTHA 141815Z AUTO 30007KT 10SM CLR 07/M02 A2995 RMK A01
KTHA 141755Z AUTO VRB04KT 10SM CLR 07/M02 A2995 RMK A01
KTHA 141735Z AUTO VRB04G10KT 10SM CLR 07/M02 A2996 RMK A01
KTHA 141715Z AUTO 01004G10KT 10SM CLR 07/M02 A2996 RMK A01
KTHA 141655Z AUTO 32008KT 10SM CLR 06/M02 A2997 RMK A01
KTHA 141635Z AUTO VRB05KT 10SM CLR 06/M02 A2996 RMK A01
KTHA 141615Z AUTO 00000KT 10SM CLR 05/M02 A2997 RMK A01
KTHA 141555Z AUTO VRB05KT 10SM CLR 05/M02 A2995 RMK A01
KTHA 141535Z AUTO 34004KT 10SM CLR 04/M02 A2995 RMK A01
KTHA 141515Z AUTO 02006KT 10SM CLR 04/M02 A2994 RMK A01
KTHA 141455Z AUTO VRB05KT 10SM CLR 04/M02 A2994 RMK A01
KTHA 141435Z AUTO 35006KT 10SM CLR 03/M02 A2993 RMK A01
KTHA 141415Z AUTO 01007KT 10SM CLR 02/M02 A2992 RMK A01
KTHA 141355Z AUTO 00000KT 10SM CLR 02/M03 A2992 RMK A01
KTHA 141335Z AUTO 36004KT 10SM CLR 01/M03 A2991 RMK A01
KTHA 141315Z AUTO 01006KT 10SM CLR 01/M03 A2991 RMK A01
KTHA 141255Z AUTO 01005G10KT 10SM CLR 00/M03 A2990 RMK A01
KTHA 141235Z AUTO 34005KT 10SM CLR 00/M03 A2990 RMK A01
KTHA 141215Z AUTO 36007KT 10SM CLR 01/M03 A2989 RMK A01
KTHA 141155Z AUTO 36010KT 10SM CLR 01/M03 A2988 RMK A01
KTHA 141135Z AUTO 00000KT 10SM CLR 00/M05 A2987 RMK A01
KTHA 141115Z AUTO 34006KT 10SM CLR M00/M05 A2986 RMK A01
KTHA 141055Z AUTO 34005KT 10SM FEW044 M03/M06 A2986 RMK A01
KTHA 141035Z AUTO 00000KT 10SM CLR M02/M05 A2985 RMK A01
KTHA 141015Z AUTO 00000KT 10SM FEW048 M00/M05 A2984 RMK A01
KTHA 140955Z AUTO 00000KT 10SM SCT043 BKN050 00/M05 A2984 RMK A01
KTHA 140935Z AUTO 00000KT 10SM BKN045 01/M05 A2983 RMK A01
KTHA 140915Z AUTO 00000KT 10SM FEW038 BKN047 01/M05 A2983 RMK A01
KTHA 140855Z AUTO 00000KT 10SM BKN047 02/M05 A2983 RMK A01
KTHA 140835Z AUTO 24003KT 10SM FEW040 BKN047 BKN055 02/M05 A2983 RMK A01
KTHA 140815Z AUTO 23007KT 10SM SCT044 02/M04 A2983 RMK A01
KTHA 140755Z AUTO 23006KT 10SM SCT043 02/M05 A2982 RMK A01
KTHA 140735Z AUTO 23007KT 10SM SCT043 SCT049 03/M04 A2982 RMK A01
KTHA 140715Z AUTO 23008KT 10SM FEW042 FEW049 04/M04 A2981 RMK A01
KTHA 140655Z AUTO 23007KT 10SM FEW042 SCT050 03/M04 A2980 RMK A01
KTHA 140635Z AUTO 23006KT 10SM FEW038 SCT048 03/M05 A2980 RMK A01
KTHA 140615Z AUTO 23007KT 10SM FEW050 03/M05 A2980 RMK A01
KTHA 140555Z AUTO 24007KT 10SM FEW049 03/M05 A2980 RMK A01